Time;durP1;ratioP1;P1;durP2;ratioP2;P2;SDS_P1;SDS_P2;PMS_P1;PMS_P2;Temp;Humidity;BMP_temperature;BMP_pressure;BME280_temperature;BME280_humidity;BME280_pressure;Samples;Min_cycle;Max_cycle;Signal;HPM_P1;HPM_P2
2024/01/25 00:01:17;;;;;;;;;;;;;;;;;;5071278;28;19923;-86
2024/01/25 00:03:45;;;;;;;;;;;;;;;;;;5074115;28;19916;-86
2024/01/25 00:06:10;;;;;;;;;;;;;;;;;;5079215;28;20011;-86
2024/01/25 00:08:36;;;;;;;;;;;;;;;;;;5084026;27;20010;-84
2024/01/25 00:11:04;;;;;;;;;;;;;;;;;;5099612;27;19961;-85
2024/01/25 00:13:31;;;;;;;;;;;;;;;;;;5079013;27;19920;-85
2024/01/25 00:15:56;;;;;;;;;;;;;;;;;;5092141;27;19912;-85
2024/01/25 00:18:22;;;;;;;;;;;;;;;;;;5088576;27;19919;-83
2024/01/25 00:20:49;;;;;;;;;;;;;;;;;;5097768;27;19912;-87
2024/01/25 00:23:16;;;;;;;;;;;;;;;;;;5093530;27;20418;-83
2024/01/25 00:25:43;;;;;;;;;;;;;;;;;;5093971;27;19916;-86
2024/01/25 00:28:12;;;;;;;;;;;;;;;;;;5093568;27;19912;-85
2024/01/25 00:30:40;;;;;;;;;;;;;;;;;;5092126;27;19919;-86
2024/01/25 00:33:07;;;;;;;;;;;;;;;;;;5076206;28;19946;-85
2024/01/25 00:35:35;;;;;;;;;;;;;;;;;;5093866;27;20081;-85
2024/01/25 00:38:02;;;;;;;;;;;;;;;;;;5105012;27;20547;-86
2024/01/25 00:40:29;;;;;;;;;;;;;;;;;;5093760;28;19949;-84
2024/01/25 00:42:57;;;;;;;;;;;;;;;;;;5099762;27;19938;-85
2024/01/25 00:45:24;;;;;;;;;;;;;;;;;;5102732;27;20577;-83
2024/01/25 00:47:51;;;;;;;;;;;;;;;;;;5086452;27;20178;-83
2024/01/25 00:50:20;;;;;;;;;;;;;;;;;;5073405;27;19915;-84
2024/01/25 00:52:48;;;;;;;;;;;;;;;;;;5090445;27;19961;-84
2024/01/25 00:55:35;;;;;;;;;;;;;;;;;;5089498;27;19958;-84
2024/01/25 00:58:02;;;;;;;;;;;;;;;;;;5073613;27;20034;-85
2024/01/25 01:00:28;;;;;;;;;;;;;;;;;;5078753;27;20603;-83
2024/01/25 01:02:55;;;;;;;;;;;;;;;;;;5088764;27;19916;-85
2024/01/25 01:05:21;;;;;;;;;;;;;;;;;;5088799;27;19918;-84
2024/01/25 01:07:49;;;;;;;;;;;;;;;;;;5089398;27;19911;-83
2024/01/25 01:10:15;;;;;;;;;;;;;;;;;;5087966;27;20019;-83
2024/01/25 01:12:42;;;;;;;;;;;;;;;;;;5088065;27;22117;-84
2024/01/25 01:15:08;;;;;;;;;;;;;;;;;;5074886;28;19911;-83
2024/01/25 01:17:36;;;;;;;;;;;;;;;;;;5084986;27;20374;-83
2024/01/25 01:20:03;;;;;;;;;;;;;;;;;;5084662;27;19912;-84
2024/01/25 01:22:39;;;;;;;;;;;;;;;;;;5083718;28;19912;-84
2024/01/25 01:25:05;;;;;;;;;;;;;;;;;;5089802;27;19935;-84
2024/01/25 01:27:33;;;;;;;;;;;;;;;;;;5094684;27;19915;-85
2024/01/25 01:30:00;;;;;;;;;;;;;;;;;;5073108;28;20446;-84
2024/01/25 01:32:27;;;;;;;;;;;;;;;;;;5087318;27;19915;-84
2024/01/25 01:34:55;;;;;;;;;;;;;;;;;;5082986;28;19904;-85
2024/01/25 01:37:21;;;;;;;;;;;;;;;;;;5072833;28;19911;-84
2024/01/25 01:39:49;;;;;;;;;;;;;;;;;;5085085;27;20457;-83
2024/01/25 01:42:16;;;;;;;;;;;;;;;;;;5087904;28;19972;-83
2024/01/25 01:44:42;;;;;;;;;;;;;;;;;;5089055;28;19911;-83
2024/01/25 01:47:09;;;;;;;;;;;;;;;;;;5076385;28;19912;-83
2024/01/25 01:49:36;;;;;;;;;;;;;;;;;;5069694;27;19915;-82
2024/01/25 01:52:04;;;;;;;;;;;;;;;;;;5078149;28;19918;-83
2024/01/25 01:54:31;;;;;;;;;;;;;;;;;;5068444;28;20034;-83
2024/01/25 01:56:57;;;;;;;;;;;;;;;;;;5073905;28;19923;-83
2024/01/25 01:59:25;;;;;;;;;;;;;;;;;;5084892;28;19908;-83
2024/01/25 02:01:53;;;;;;;;;;;;;;;;;;5090950;27;20471;-83
2024/01/25 02:04:20;;;;;;;;;;;;;;;;;;5084302;28;19919;-84
2024/01/25 02:06:46;;;;;;;;;;;;;;;;;;5083546;28;19911;-83
2024/01/25 02:09:13;;;;;;;;;;;;;;;;;;5078344;28;19920;-84
2024/01/25 02:11:39;;;;;;;;;;;;;;;;;;5076988;28;21675;-84
2024/01/25 02:14:10;;;;;;;;;;;;;;;;;;5092249;28;19911;-83
2024/01/25 02:16:38;;;;;;;;;;;;;;;;;;5087123;28;20174;-84
2024/01/25 02:19:06;;;;;;;;;;;;;;;;;;5090874;28;19962;-83
2024/01/25 02:21:33;;;;;;;;;;;;;;;;;;5089120;28;19954;-83
2024/01/25 02:24:03;;;;;;;;;;;;;;;;;;5092639;28;19912;-84
2024/01/25 02:26:30;;;;;;;;;;;;;;;;;;5074200;28;19915;-83
2024/01/25 02:28:57;;;;;;;;;;;;;;;;;;5081476;28;19995;-83
2024/01/25 02:31:24;;;;;;;;;;;;;;;;;;5086909;27;19916;-84
2024/01/25 02:33:50;;;;;;;;;;;;;;;;;;5072930;28;19918;-84
2024/01/25 02:36:16;;;;;;;;;;;;;;;;;;5074853;28;19916;-84
2024/01/25 02:38:43;;;;;;;;;;;;;;;;;;5086765;27;19915;-83
2024/01/25 02:41:09;;;;;;;;;;;;;;;;;;5090264;27;19919;-83
2024/01/25 02:43:36;;;;;;;;;;;;;;;;;;5085164;27;19912;-84
2024/01/25 02:46:04;;;;;;;;;;;;;;;;;;5084462;27;19912;-84
2024/01/25 02:48:31;;;;;;;;;;;;;;;;;;5075268;28;20366;-83
2024/01/25 02:50:58;;;;;;;;;;;;;;;;;;5071547;27;19915;-83
2024/01/25 02:53:25;;;;;;;;;;;;;;;;;;5075947;27;19911;-82
2024/01/25 02:55:52;;;;;;;;;;;;;;;;;;5091346;27;19919;-84
2024/01/25 02:58:20;;;;;;;;;;;;;;;;;;5078008;27;19908;-84
2024/01/25 03:00:47;;;;;;;;;;;;;;;;;;5093058;27;19973;-83
2024/01/25 03:03:13;;;;;;;;;;;;;;;;;;5095477;27;19912;-83
2024/01/25 03:05:41;;;;;;;;;;;;;;;;;;5077257;27;19911;-83
2024/01/25 03:08:08;;;;;;;;;;;;;;;;;;5077212;27;19908;-84
2024/01/25 03:10:33;;;;;;;;;;;;;;;;;;5068708;28;19919;-83
2024/01/25 03:13:01;;;;;;;;;;;;;;;;;;5068455;28;19919;-83
2024/01/25 03:15:28;;;;;;;;;;;;;;;;;;5070062;28;19915;-83
2024/01/25 03:17:55;;;;;;;;;;;;;;;;;;5071851;28;19991;-84
2024/01/25 03:20:22;;;;;;;;;;;;;;;;;;5072566;28;19912;-84
2024/01/25 03:22:48;;;;;;;;;;;;;;;;;;5067950;28;19912;-83
2024/01/25 03:25:15;;;;;;;;;;;;;;;;;;5073006;28;19965;-84
2024/01/25 03:27:41;;;;;;;;;;;;;;;;;;5067758;28;19919;-84
2024/01/25 03:30:07;;;;;;;;;;;;;;;;;;5070021;28;19922;-83
2024/01/25 03:32:35;;;;;;;;;;;;;;;;;;5069390;28;19912;-84
2024/01/25 03:35:01;;;;;;;;;;;;;;;;;;5072825;28;19916;-81
2024/01/25 03:37:29;;;;;;;;;;;;;;;;;;5070433;28;19996;-84
2024/01/25 03:39:56;;;;;;;;;;;;;;;;;;5072813;28;19919;-83
2024/01/25 03:42:23;;;;;;;;;;;;;;;;;;5069288;28;19959;-84
2024/01/25 03:44:50;;;;;;;;;;;;;;;;;;5071185;28;20023;-84
2024/01/25 03:47:17;;;;;;;;;;;;;;;;;;5069448;28;19919;-83
2024/01/25 03:49:44;;;;;;;;;;;;;;;;;;5066729;28;19916;-83
2024/01/25 03:52:11;;;;;;;;;;;;;;;;;;5072904;28;20368;-83
2024/01/25 03:54:38;;;;;;;;;;;;;;;;;;5072187;28;20676;-83
2024/01/25 03:57:06;;;;;;;;;;;;;;;;;;5074383;28;20002;-83
2024/01/25 03:59:33;;;;;;;;;;;;;;;;;;5070713;28;19935;-83
2024/01/25 04:02:00;;;;;;;;;;;;;;;;;;5072465;28;19922;-82
2024/01/25 04:04:27;;;;;;;;;;;;;;;;;;5068315;28;19951;-83
2024/01/25 04:06:54;;;;;;;;;;;;;;;;;;5071741;28;20400;-83
2024/01/25 04:09:20;;;;;;;;;;;;;;;;;;5069055;28;19969;-83
2024/01/25 04:11:47;;;;;;;;;;;;;;;;;;5085501;28;19915;-82
2024/01/25 04:14:15;;;;;;;;;;;;;;;;;;5101981;28;19911;-84
2024/01/25 04:16:42;;;;;;;;;;;;;;;;;;5071029;28;20285;-83
2024/01/25 04:19:12;;;;;;;;;;;;;;;;;;5072289;28;19962;-83
2024/01/25 04:21:38;;;;;;;;;;;;;;;;;;5069530;28;20454;-82
2024/01/25 04:24:05;;;;;;;;;;;;;;;;;;5070278;28;19912;-83
2024/01/25 04:26:32;;;;;;;;;;;;;;;;;;5068646;28;19911;-83
2024/01/25 04:29:00;;;;;;;;;;;;;;;;;;5070329;28;19919;-83
2024/01/25 04:31:27;;;;;;;;;;;;;;;;;;5069222;28;19916;-83
2024/01/25 04:33:55;;;;;;;;;;;;;;;;;;5067598;28;19915;-85
2024/01/25 04:36:20;;;;;;;;;;;;;;;;;;5067802;28;20708;-85
2024/01/25 04:38:48;;;;;;;;;;;;;;;;;;5067466;28;19919;-83
2024/01/25 04:41:15;;;;;;;;;;;;;;;;;;5067146;28;20654;-83
2024/01/25 04:43:43;;;;;;;;;;;;;;;;;;5061754;28;19939;-83
2024/01/25 04:46:35;;;;;;;;;;;;;;;;;;5063252;28;19924;-85
2024/01/25 04:49:11;;;;;;;;;;;;;;;;;;5065124;28;20486;-84
2024/01/25 04:51:38;;;;;;;;;;;;;;;;;;5067518;28;19999;-83
2024/01/25 04:54:08;;;;;;;;;;;;;;;;;;5064822;28;19911;-84
2024/01/25 04:56:35;;;;;;;;;;;;;;;;;;5065280;28;19911;-84
2024/01/25 04:59:01;;;;;;;;;;;;;;;;;;5067390;28;20663;-83
2024/01/25 05:01:29;;;;;;;;;;;;;;;;;;5066614;28;19922;-84
2024/01/25 05:03:56;;;;;;;;;;;;;;;;;;5067550;28;20430;-84
2024/01/25 05:06:23;;;;;;;;;;;;;;;;;;5068194;28;20576;-85
2024/01/25 05:08:49;;;;;;;;;;;;;;;;;;5068118;28;19999;-85
2024/01/25 05:11:17;;;;;;;;;;;;;;;;;;5079430;28;19916;-83
2024/01/25 05:13:45;;;;;;;;;;;;;;;;;;5087885;27;19915;-84
2024/01/25 05:16:12;;;;;;;;;;;;;;;;;;5088659;27;19912;-83
2024/01/25 05:18:39;;;;;;;;;;;;;;;;;;5069980;28;19928;-82
2024/01/25 05:21:06;;;;;;;;;;;;;;;;;;5076349;27;19911;-82
2024/01/25 05:23:34;;;;;;;;;;;;;;;;;;5081337;27;19942;-83
2024/01/25 05:26:02;;;;;;;;;;;;;;;;;;5077506;27;20459;-85
2024/01/25 05:28:29;;;;;;;;;;;;;;;;;;5089502;27;19972;-83
2024/01/25 05:30:57;;;;;;;;;;;;;;;;;;5085833;27;19946;-84
2024/01/25 05:33:27;;;;;;;;;;;;;;;;;;5098824;27;19919;-84
2024/01/25 05:35:54;;;;;;;;;;;;;;;;;;5090310;27;19915;-85
2024/01/25 05:38:20;;;;;;;;;;;;;;;;;;5107679;27;19938;-84
2024/01/25 05:40:48;;;;;;;;;;;;;;;;;;5103801;27;20615;-84
2024/01/25 05:43:15;;;;;;;;;;;;;;;;;;5102344;27;19912;-83
2024/01/25 05:45:43;;;;;;;;;;;;;;;;;;5105399;27;21615;-83
2024/01/25 05:48:10;;;;;;;;;;;;;;;;;;5106352;27;19911;-84
2024/01/25 05:50:38;;;;;;;;;;;;;;;;;;5104617;27;19915;-83
2024/01/25 05:53:05;;;;;;;;;;;;;;;;;;5110267;27;19911;-84
2024/01/25 05:55:32;;;;;;;;;;;;;;;;;;5087638;27;19923;-84
2024/01/25 05:57:58;;;;;;;;;;;;;;;;;;5107790;27;19998;-83
2024/01/25 06:00:26;;;;;;;;;;;;;;;;;;5089406;27;20470;-83
2024/01/25 06:02:53;;;;;;;;;;;;;;;;;;5089954;27;19997;-84
2024/01/25 06:05:20;;;;;;;;;;;;;;;;;;5092284;27;19916;-84
2024/01/25 06:07:49;;;;;;;;;;;;;;;;;;5091114;27;20491;-84
2024/01/25 06:10:17;;;;;;;;;;;;;;;;;;5107736;27;19942;-84
2024/01/25 06:12:44;;;;;;;;;;;;;;;;;;5094717;27;19922;-84
2024/01/25 06:15:12;;;;;;;;;;;;;;;;;;5093713;27;19912;-84
2024/01/25 06:17:39;;;;;;;;;;;;;;;;;;5107493;27;20385;-84
2024/01/25 06:20:06;;;;;;;;;;;;;;;;;;5097298;27;20581;-84
2024/01/25 06:22:33;;;;;;;;;;;;;;;;;;5109320;27;19919;-85
2024/01/25 06:24:59;;;;;;;;;;;;;;;;;;5111616;27;19907;-85
2024/01/25 06:27:26;;;;;;;;;;;;;;;;;;5093839;27;19976;-84
2024/01/25 06:29:54;;;;;;;;;;;;;;;;;;5112235;27;19930;-83
2024/01/25 06:32:21;;;;;;;;;;;;;;;;;;5112020;27;19929;-84
2024/01/25 06:34:48;;;;;;;;;;;;;;;;;;5096413;27;20025;-85
2024/01/25 06:37:15;;;;;;;;;;;;;;;;;;5095323;27;20019;-82
2024/01/25 06:39:42;;;;;;;;;;;;;;;;;;5112349;27;24768;-83
2024/01/25 06:42:08;;;;;;;;;;;;;;;;;;5096332;27;19960;-84
2024/01/25 06:44:36;;;;;;;;;;;;;;;;;;5112812;27;19915;-84
2024/01/25 06:47:03;;;;;;;;;;;;;;;;;;5109200;27;19911;-84
2024/01/25 06:49:30;;;;;;;;;;;;;;;;;;5093051;27;19922;-85
2024/01/25 06:51:57;;;;;;;;;;;;;;;;;;5094672;27;19934;-82
2024/01/25 06:54:23;;;;;;;;;;;;;;;;;;5092214;27;20378;-84
2024/01/25 06:56:51;;;;;;;;;;;;;;;;;;5110450;27;19915;-83
2024/01/25 06:59:17;;;;;;;;;;;;;;;;;;5094516;27;20004;-83
2024/01/25 07:01:44;;;;;;;;;;;;;;;;;;5094402;27;19911;-83
2024/01/25 07:04:12;;;;;;;;;;;;;;;;;;5097689;27;19941;-84
2024/01/25 07:06:39;;;;;;;;;;;;;;;;;;5109456;27;19919;-84
2024/01/25 07:09:06;;;;;;;;;;;;;;;;;;5110019;27;19911;-84
2024/01/25 07:11:32;;;;;;;;;;;;;;;;;;5094650;27;19919;-84
2024/01/25 07:14:00;;;;;;;;;;;;;;;;;;5090272;27;20015;-85
2024/01/25 07:16:27;;;;;;;;;;;;;;;;;;5107419;27;19936;-84
2024/01/25 07:18:54;;;;;;;;;;;;;;;;;;5094768;27;20042;-84
2024/01/25 07:21:21;;;;;;;;;;;;;;;;;;5096492;27;19915;-83
2024/01/25 07:23:48;;;;;;;;;;;;;;;;;;5092066;27;19911;-75
2024/01/25 07:26:16;;;;;;;;;;;;;;;;;;5093610;27;19951;-74
2024/01/25 07:28:43;;;;;;;;;;;;;;;;;;5094482;27;19923;-75
2024/01/25 07:31:11;;;;;;;;;;;;;;;;;;5092693;27;19915;-74
2024/01/25 07:33:38;;;;;;;;;;;;;;;;;;5107219;27;19920;-74
2024/01/25 07:36:05;;;;;;;;;;;;;;;;;;5095656;27;20248;-75
2024/01/25 07:38:32;;;;;;;;;;;;;;;;;;5093308;27;19920;-74
2024/01/25 07:40:58;;;;;;;;;;;;;;;;;;5111255;27;19957;-75
2024/01/25 07:43:25;;;;;;;;;;;;;;;;;;5089003;27;19915;-75
2024/01/25 07:45:51;;;;;;;;;;;;;;;;;;5092541;27;19918;-74
2024/01/25 07:48:19;;;;;;;;;;;;;;;;;;5093175;27;19912;-75
2024/01/25 07:50:46;;;;;;;;;;;;;;;;;;5090910;27;20582;-75
2024/01/25 07:53:16;;;;;;;;;;;;;;;;;;5081949;27;19935;-75
2024/01/25 07:55:43;;;;;;;;;;;;;;;;;;5049950;28;19920;-75
2024/01/25 07:58:10;;;;;;;;;;;;;;;;;;5050745;28;20451;-74
2024/01/25 08:00:38;;;;;;;;;;;;;;;;;;5049428;28;19995;-74
2024/01/25 08:03:05;;;;;;;;;;;;;;;;;;5064272;28;19912;-75
2024/01/25 08:05:52;;;;;;;;;;;;;;;;;;5062296;28;20632;-74
2024/01/25 08:08:19;;;;;;;;;;;;;;;;;;5045913;28;19912;-75
2024/01/25 08:10:47;;;;;;;;;;;;;;;;;;5062519;28;20018;-75
2024/01/25 08:13:14;;;;;;;;;;;;;;;;;;5066192;28;19919;-76
2024/01/25 08:15:40;;;;;;;;;;;;;;;;;;5048303;28;19969;-77
2024/01/25 08:18:09;;;;;;;;;;;;;;;;;;5067428;28;19915;-77
2024/01/25 08:20:39;;;;;;;;;;;;;;;;;;5064483;28;19918;-76
2024/01/25 08:23:10;;;;;;;;;;;;;;;;;;5059242;28;20371;-77
2024/01/25 08:25:37;;;;;;;;;;;;;;;;;;5062424;28;19916;-77
2024/01/25 08:28:04;;;;;;;;;;;;;;;;;;5069280;28;19923;-76
2024/01/25 08:30:32;;;;;;;;;;;;;;;;;;5048432;28;20552;-76
2024/01/25 08:32:59;;;;;;;;;;;;;;;;;;5049418;28;19923;-77
2024/01/25 08:35:25;;;;;;;;;;;;;;;;;;5065529;28;19915;-77
2024/01/25 08:37:52;;;;;;;;;;;;;;;;;;5066121;28;19943;-78
2024/01/25 08:40:19;;;;;;;;;;;;;;;;;;5049980;28;19918;-78
2024/01/25 08:42:47;;;;;;;;;;;;;;;;;;5047465;28;19918;-77
2024/01/25 08:45:13;;;;;;;;;;;;;;;;;;5067534;28;20663;-77
2024/01/25 08:47:39;;;;;;;;;;;;;;;;;;5047202;28;20015;-78
2024/01/25 08:50:10;;;;;;;;;;;;;;;;;;5065843;28;19969;-76
2024/01/25 08:52:40;;;;;;;;;;;;;;;;;;5065070;28;19924;-82
2024/01/25 08:55:16;;;;;;;;;;;;;;;;;;5066289;28;19923;-82
2024/01/25 08:57:43;;;;;;;;;;;;;;;;;;5064422;28;19916;-83
2024/01/25 09:00:15;;;;;;;;;;;;;;;;;;5050215;28;20731;-81
2024/01/25 09:02:42;;;;;;;;;;;;;;;;;;5067394;28;19911;-81
2024/01/25 09:05:31;;;;;;;;;;;;;;;;;;5066872;28;19993;-82
2024/01/25 09:08:01;;;;;;;;;;;;;;;;;;5063174;28;19951;-81
2024/01/25 09:10:32;;;;;;;;;;;;;;;;;;5066335;28;20015;-80
2024/01/25 09:12:59;;;;;;;;;;;;;;;;;;5066126;28;20538;-80
2024/01/25 09:15:25;;;;;;;;;;;;;;;;;;5060517;28;20438;-82
2024/01/25 09:17:52;;;;;;;;;;;;;;;;;;5049345;28;19912;-83
2024/01/25 09:20:20;;;;;;;;;;;;;;;;;;5068758;28;19911;-83
2024/01/25 09:22:46;;;;;;;;;;;;;;;;;;5065072;28;19951;-82
2024/01/25 09:25:14;;;;;;;;;;;;;;;;;;5068510;28;20627;-80
2024/01/25 09:27:41;;;;;;;;;;;;;;;;;;5050089;28;19973;-85
2024/01/25 09:30:09;;;;;;;;;;;;;;;;;;5065425;28;19927;-75
2024/01/25 09:32:37;;;;;;;;;;;;;;;;;;5062586;28;20367;-76
2024/01/25 09:35:05;;;;;;;;;;;;;;;;;;5065754;28;19939;-77
2024/01/25 09:37:31;;;;;;;;;;;;;;;;;;5064439;28;19984;-77
2024/01/25 09:39:58;;;;;;;;;;;;;;;;;;5065903;28;20467;-76
2024/01/25 09:42:45;;;;;;;;;;;;;;;;;;5066089;28;19955;-78
2024/01/25 09:45:12;;;;;;;;;;;;;;;;;;5048034;28;19908;-77
2024/01/25 09:47:40;;;;;;;;;;;;;;;;;;5045588;28;20498;-77
2024/01/25 09:50:07;;;;;;;;;;;;;;;;;;5049597;28;19923;-77
2024/01/25 09:52:35;;;;;;;;;;;;;;;;;;5064697;28;19930;-77
2024/01/25 09:55:13;;;;;;;;;;;;;;;;;;5067139;28;19939;-76
2024/01/25 09:57:39;;;;;;;;;;;;;;;;;;5045769;28;20735;-76
2024/01/25 10:00:11;;;;;;;;;;;;;;;;;;5046848;28;19916;-77
2024/01/25 10:02:39;;;;;;;;;;;;;;;;;;5063275;28;19912;-77
2024/01/25 10:05:06;;;;;;;;;;;;;;;;;;5049268;28;19973;-77
2024/01/25 10:07:32;;;;;;;;;;;;;;;;;;5064411;28;19938;-79
2024/01/25 10:09:59;;;;;;;;;;;;;;;;;;5049347;28;20690;-78
2024/01/25 10:12:26;;;;;;;;;;;;;;;;;;5066157;28;19969;-88
2024/01/25 10:14:53;;;;;;;;;;;;;;;;;;5046308;28;20657;-77
2024/01/25 10:17:21;;;;;;;;;;;;;;;;;;5066317;28;20705;-82
2024/01/25 10:19:48;;;;;;;;;;;;;;;;;;5063066;28;19953;-76
2024/01/25 10:22:14;;;;;;;;;;;;;;;;;;5049713;28;20376;-82
2024/01/25 10:24:42;;;;;;;;;;;;;;;;;;5066116;28;20728;-81
2024/01/25 10:27:18;;;;;;;;;;;;;;;;;;5065421;28;19930;-83
2024/01/25 10:29:46;;;;;;;;;;;;;;;;;;5065095;28;19976;-80
2024/01/25 10:32:12;;;;;;;;;;;;;;;;;;5048582;28;19913;-80
2024/01/25 10:34:40;;;;;;;;;;;;;;;;;;5059873;28;19934;-79
2024/01/25 10:37:08;;;;;;;;;;;;;;;;;;5049198;28;19916;-84
2024/01/25 10:39:35;;;;;;;;;;;;;;;;;;5046752;28;19911;-79
2024/01/25 10:42:01;;;;;;;;;;;;;;;;;;5050095;28;20654;-81
2024/01/25 10:44:27;;;;;;;;;;;;;;;;;;5047363;28;19961;-79
2024/01/25 10:46:57;;;;;;;;;;;;;;;;;;5062925;28;20803;-79
2024/01/25 10:49:26;;;;;;;;;;;;;;;;;;5067212;28;19916;-82
2024/01/25 10:52:02;;;;;;;;;;;;;;;;;;5062410;28;20514;-75
2024/01/25 10:54:29;;;;;;;;;;;;;;;;;;5062263;28;19926;-84
2024/01/25 10:56:56;;;;;;;;;;;;;;;;;;5071311;28;20462;-83
2024/01/25 10:59:25;;;;;;;;;;;;;;;;;;5072000;28;20010;-83
2024/01/25 11:01:52;;;;;;;;;;;;;;;;;;5053125;28;19911;-77
2024/01/25 11:04:19;;;;;;;;;;;;;;;;;;5069652;28;19919;-74
2024/01/25 11:06:46;;;;;;;;;;;;;;;;;;5065033;28;19908;-77
2024/01/25 11:09:17;;;;;;;;;;;;;;;;;;5068236;28;20020;-76
2024/01/25 11:11:44;;;;;;;;;;;;;;;;;;5066727;28;19966;-76
2024/01/25 11:14:10;;;;;;;;;;;;;;;;;;5069912;28;20352;-75
2024/01/25 11:16:42;;;;;;;;;;;;;;;;;;5051342;28;19919;-84
2024/01/25 11:19:09;;;;;;;;;;;;;;;;;;5076301;28;19916;-75
2024/01/25 11:21:37;;;;;;;;;;;;;;;;;;5065368;28;19915;-76
2024/01/25 11:24:03;;;;;;;;;;;;;;;;;;5052341;28;19951;-75
2024/01/25 11:26:29;;;;;;;;;;;;;;;;;;5048692;28;20377;-75
2024/01/25 11:28:59;;;;;;;;;;;;;;;;;;5072310;28;19958;-83
2024/01/25 11:31:27;;;;;;;;;;;;;;;;;;5057263;28;19951;-84
2024/01/25 11:33:54;;;;;;;;;;;;;;;;;;5077020;28;19912;-83
2024/01/25 11:36:22;;;;;;;;;;;;;;;;;;5056990;28;19912;-83
2024/01/25 11:38:49;;;;;;;;;;;;;;;;;;5069681;28;19912;-83
2024/01/25 11:41:15;;;;;;;;;;;;;;;;;;5070963;28;19912;-75
2024/01/25 11:43:42;;;;;;;;;;;;;;;;;;5048140;28;19922;-76
2024/01/25 11:46:10;;;;;;;;;;;;;;;;;;5069964;28;19969;-76
2024/01/25 11:48:37;;;;;;;;;;;;;;;;;;5050679;28;19912;-76
2024/01/25 11:51:03;;;;;;;;;;;;;;;;;;5066175;28;20343;-76
2024/01/25 11:53:30;;;;;;;;;;;;;;;;;;5062017;28;20578;-77
2024/01/25 11:55:57;;;;;;;;;;;;;;;;;;5050360;28;20474;-76
2024/01/25 11:58:24;;;;;;;;;;;;;;;;;;5062195;28;19966;-76
2024/01/25 12:00:52;;;;;;;;;;;;;;;;;;5068821;28;20101;-78
2024/01/25 12:03:20;;;;;;;;;;;;;;;;;;5069290;28;19919;-76
2024/01/25 12:05:46;;;;;;;;;;;;;;;;;;5047191;28;20279;-76
2024/01/25 12:08:12;;;;;;;;;;;;;;;;;;5067705;28;19912;-76
2024/01/25 12:10:39;;;;;;;;;;;;;;;;;;5047426;28;19922;-76
2024/01/25 12:13:06;;;;;;;;;;;;;;;;;;5068199;28;20060;-76
2024/01/25 12:15:33;;;;;;;;;;;;;;;;;;5064629;28;19934;-76
2024/01/25 12:18:01;;;;;;;;;;;;;;;;;;5069846;28;19951;-82
2024/01/25 12:20:27;;;;;;;;;;;;;;;;;;5048445;28;20350;-83
2024/01/25 12:22:54;;;;;;;;;;;;;;;;;;5049254;28;19944;-77
2024/01/25 12:25:21;;;;;;;;;;;;;;;;;;5067731;28;19912;-77
2024/01/25 12:27:49;;;;;;;;;;;;;;;;;;5066653;28;19913;-82
2024/01/25 12:30:15;;;;;;;;;;;;;;;;;;5075732;28;19915;-88
2024/01/25 12:32:41;;;;;;;;;;;;;;;;;;5056857;28;20371;-86
2024/01/25 12:35:08;;;;;;;;;;;;;;;;;;5053646;28;19912;-87
2024/01/25 12:37:35;;;;;;;;;;;;;;;;;;5054393;28;19950;-86
2024/01/25 12:40:02;;;;;;;;;;;;;;;;;;5054877;28;19911;-85
2024/01/25 12:42:28;;;;;;;;;;;;;;;;;;5052247;28;19919;-84
2024/01/25 12:44:56;;;;;;;;;;;;;;;;;;5052553;28;19908;-85
2024/01/25 12:47:23;;;;;;;;;;;;;;;;;;5050849;28;19912;-83
2024/01/25 12:49:49;;;;;;;;;;;;;;;;;;5073167;28;19908;-83
2024/01/25 12:52:16;;;;;;;;;;;;;;;;;;5070604;28;20470;-86
2024/01/25 12:54:44;;;;;;;;;;;;;;;;;;5070190;28;22403;-86
2024/01/25 12:57:11;;;;;;;;;;;;;;;;;;5047113;28;19951;-84
2024/01/25 12:59:39;;;;;;;;;;;;;;;;;;5066899;28;19923;-83
2024/01/25 13:02:26;;;;;;;;;;;;;;;;;;5064228;28;19925;-83
2024/01/25 13:05:12;;;;;;;;;;;;;;;;;;5065116;28;19922;-84
2024/01/25 13:07:39;;;;;;;;;;;;;;;;;;5065714;28;19912;-83
2024/01/25 13:10:05;;;;;;;;;;;;;;;;;;5068914;28;19920;-83
2024/01/25 13:12:33;;;;;;;;;;;;;;;;;;5066250;28;20786;-83
2024/01/25 13:14:59;;;;;;;;;;;;;;;;;;5048919;28;19916;-83
2024/01/25 13:17:27;;;;;;;;;;;;;;;;;;5064574;28;20323;-84
2024/01/25 13:19:55;;;;;;;;;;;;;;;;;;5066226;28;19912;-84
2024/01/25 13:22:24;;;;;;;;;;;;;;;;;;5068620;28;19911;-84
2024/01/25 13:24:53;;;;;;;;;;;;;;;;;;5067692;28;19912;-85
2024/01/25 13:27:20;;;;;;;;;;;;;;;;;;5069111;28;19918;-83
2024/01/25 13:29:47;;;;;;;;;;;;;;;;;;5047176;28;20014;-84
2024/01/25 13:32:13;;;;;;;;;;;;;;;;;;5067304;28;19926;-85
2024/01/25 13:34:40;;;;;;;;;;;;;;;;;;5048296;28;19920;-85
2024/01/25 13:37:07;;;;;;;;;;;;;;;;;;5048125;28;19911;-85
2024/01/25 13:39:34;;;;;;;;;;;;;;;;;;5067131;28;19923;-85
2024/01/25 13:42:01;;;;;;;;;;;;;;;;;;5049460;28;19912;-84
2024/01/25 13:44:28;;;;;;;;;;;;;;;;;;5066744;28;20421;-85
2024/01/25 13:46:55;;;;;;;;;;;;;;;;;;5049593;28;20271;-88
2024/01/25 13:49:23;;;;;;;;;;;;;;;;;;5068525;28;19912;-83
2024/01/25 13:51:49;;;;;;;;;;;;;;;;;;5049058;28;19922;-85
2024/01/25 13:54:15;;;;;;;;;;;;;;;;;;5066316;28;19920;-83
2024/01/25 13:56:42;;;;;;;;;;;;;;;;;;5068009;28;19957;-85
2024/01/25 13:59:09;;;;;;;;;;;;;;;;;;5069714;28;19938;-85
2024/01/25 14:01:37;;;;;;;;;;;;;;;;;;5066798;28;19912;-85
2024/01/25 14:04:04;;;;;;;;;;;;;;;;;;5050834;28;20009;-84
2024/01/25 14:06:31;;;;;;;;;;;;;;;;;;5061285;28;19916;-84
2024/01/25 14:08:59;;;;;;;;;;;;;;;;;;5065710;28;19937;-85
2024/01/25 14:11:26;;;;;;;;;;;;;;;;;;5065356;28;19920;-85
2024/01/25 14:13:54;;;;;;;;;;;;;;;;;;5069708;28;20018;-83
2024/01/25 14:16:21;;;;;;;;;;;;;;;;;;5053483;28;19939;-85
2024/01/25 14:18:48;;;;;;;;;;;;;;;;;;5051694;28;20011;-86
2024/01/25 14:21:16;;;;;;;;;;;;;;;;;;5051336;28;19960;-87
2024/01/25 14:23:43;;;;;;;;;;;;;;;;;;5067436;28;20830;-86
2024/01/25 14:26:10;;;;;;;;;;;;;;;;;;5067218;28;19916;-85
2024/01/25 14:28:38;;;;;;;;;;;;;;;;;;5069659;28;19973;-85
2024/01/25 14:31:03;;;;;;;;;;;;;;;;;;5051206;28;19927;-84
2024/01/25 14:33:29;;;;;;;;;;;;;;;;;;5069895;28;19915;-84
2024/01/25 14:35:55;;;;;;;;;;;;;;;;;;5070093;28;19912;-83
2024/01/25 14:38:23;;;;;;;;;;;;;;;;;;5056258;28;19933;-84
2024/01/25 14:40:50;;;;;;;;;;;;;;;;;;5069990;28;19912;-82
2024/01/25 14:43:16;;;;;;;;;;;;;;;;;;5053066;28;19939;-83
2024/01/25 14:45:44;;;;;;;;;;;;;;;;;;5069182;28;19916;-85
2024/01/25 14:48:11;;;;;;;;;;;;;;;;;;5053245;28;19923;-85
2024/01/25 14:50:39;;;;;;;;;;;;;;;;;;5069022;28;19944;-84
2024/01/25 14:53:06;;;;;;;;;;;;;;;;;;5047402;28;19917;-85
2024/01/25 14:55:34;;;;;;;;;;;;;;;;;;5026920;28;19920;-85
2024/01/25 14:58:00;;;;;;;;;;;;;;;;;;5045116;28;19912;-84
2024/01/25 15:00:26;;;;;;;;;;;;;;;;;;5028448;28;19913;-85
2024/01/25 15:02:56;;;;;;;;;;;;;;;;;;5030910;28;19913;-84
2024/01/25 15:05:23;;;;;;;;;;;;;;;;;;5030596;28;19920;-85
2024/01/25 15:07:50;;;;;;;;;;;;;;;;;;5045598;28;19928;-85
2024/01/25 15:10:17;;;;;;;;;;;;;;;;;;5033197;28;20054;-77
2024/01/25 15:12:44;;;;;;;;;;;;;;;;;;5024322;28;19916;-77
2024/01/25 15:15:10;;;;;;;;;;;;;;;;;;5038457;28;19920;-78
2024/01/25 15:17:37;;;;;;;;;;;;;;;;;;5025561;28;20444;-77
2024/01/25 15:20:05;;;;;;;;;;;;;;;;;;5040409;28;20414;-77
2024/01/25 15:22:32;;;;;;;;;;;;;;;;;;5024500;28;19928;-77
2024/01/25 15:24:59;;;;;;;;;;;;;;;;;;5073167;27;19928;-77
2024/01/25 15:27:26;;;;;;;;;;;;;;;;;;5087959;27;19959;-76
2024/01/25 15:29:53;;;;;;;;;;;;;;;;;;5088202;27;19915;-77
2024/01/25 15:32:21;;;;;;;;;;;;;;;;;;5088249;27;19946;-77
2024/01/25 15:34:47;;;;;;;;;;;;;;;;;;5088688;27;19919;-77
2024/01/25 15:37:14;;;;;;;;;;;;;;;;;;5089016;27;19916;-77
2024/01/25 15:39:43;;;;;;;;;;;;;;;;;;5089065;27;19918;-77
2024/01/25 15:42:11;;;;;;;;;;;;;;;;;;5089287;27;19918;-76
2024/01/25 15:44:39;;;;;;;;;;;;;;;;;;5083684;27;20469;-77
2024/01/25 15:47:06;;;;;;;;;;;;;;;;;;5091591;27;19911;-76
2024/01/25 15:49:32;;;;;;;;;;;;;;;;;;5087631;27;19988;-78
2024/01/25 15:51:58;;;;;;;;;;;;;;;;;;5085908;27;19919;-79
2024/01/25 15:54:25;;;;;;;;;;;;;;;;;;5084461;27;19919;-78
2024/01/25 15:56:54;;;;;;;;;;;;;;;;;;5088665;27;20039;-77
2024/01/25 15:59:21;;;;;;;;;;;;;;;;;;5084913;27;19989;-77
2024/01/25 16:01:48;;;;;;;;;;;;;;;;;;5086656;27;19950;-78
2024/01/25 16:04:15;;;;;;;;;;;;;;;;;;5087453;27;20559;-79
2024/01/25 16:06:43;;;;;;;;;;;;;;;;;;5086231;27;21757;-84
2024/01/25 16:09:10;;;;;;;;;;;;;;;;;;5091250;27;19912;-84
2024/01/25 16:11:37;;;;;;;;;;;;;;;;;;5087724;27;19922;-84
2024/01/25 16:14:04;;;;;;;;;;;;;;;;;;5090577;27;19912;-83
2024/01/25 16:16:32;;;;;;;;;;;;;;;;;;5088384;27;19915;-84
2024/01/25 16:18:59;;;;;;;;;;;;;;;;;;5088339;27;21373;-83
2024/01/25 16:21:26;;;;;;;;;;;;;;;;;;5086287;27;20604;-85
2024/01/25 16:23:52;;;;;;;;;;;;;;;;;;5089464;27;19915;-83
2024/01/25 16:26:19;;;;;;;;;;;;;;;;;;5075510;28;19911;-83
2024/01/25 16:28:46;;;;;;;;;;;;;;;;;;5073205;28;19916;-84
2024/01/25 16:31:12;;;;;;;;;;;;;;;;;;5076886;28;20295;-83
2024/01/25 16:33:40;;;;;;;;;;;;;;;;;;5073443;28;19912;-83
2024/01/25 16:36:07;;;;;;;;;;;;;;;;;;5077670;28;19919;-83
2024/01/25 16:38:35;;;;;;;;;;;;;;;;;;5076639;28;20013;-83
2024/01/25 16:41:00;;;;;;;;;;;;;;;;;;5072129;28;19912;-83
2024/01/25 16:43:26;;;;;;;;;;;;;;;;;;5071770;28;19941;-83
2024/01/25 16:45:54;;;;;;;;;;;;;;;;;;5076371;28;19919;-82
2024/01/25 16:48:22;;;;;;;;;;;;;;;;;;5076442;28;19923;-82